sensor_id;sensor_type;location;lat;lon;timestamp;P1;durP1;ratioP1;P2;durP2;ratioP2
13590;SDS011;6866;50.778;7.206;2023-07-20T00:02:19;11.25;;;3.00;;
13590;SDS011;6866;50.778;7.206;2023-07-20T00:04:44;9.43;;;3.28;;
13590;SDS011;6866;50.778;7.206;2023-07-20T00:07:10;7.47;;;3.35;;
13590;SDS011;6866;50.778;7.206;2023-07-20T00:09:35;7.38;;;3.30;;
13590;SDS011;6866;50.778;7.206;2023-07-20T00:12:01;9.80;;;3.05;;
13590;SDS011;6866;50.778;7.206;2023-07-20T00:14:26;8.65;;;2.85;;
13590;SDS011;6866;50.778;7.206;2023-07-20T00:16:52;10.88;;;3.60;;
13590;SDS011;6866;50.778;7.206;2023-07-20T00:19:23;10.00;;;3.53;;
13590;SDS011;6866;50.778;7.206;2023-07-20T00:21:49;7.05;;;3.10;;
13590;SDS011;6866;50.778;7.206;2023-07-20T00:24:15;10.02;;;3.25;;
13590;SDS011;6866;50.778;7.206;2023-07-20T00:26:41;6.50;;;2.80;;
13590;SDS011;6866;50.778;7.206;2023-07-20T00:29:06;9.02;;;2.80;;
13590;SDS011;6866;50.778;7.206;2023-07-20T00:31:32;7.85;;;2.92;;
13590;SDS011;6866;50.778;7.206;2023-07-20T00:33:57;11.82;;;3.10;;
13590;SDS011;6866;50.778;7.206;2023-07-20T00:36:23;8.98;;;3.42;;
13590;SDS011;6866;50.778;7.206;2023-07-20T00:38:48;8.93;;;3.17;;
13590;SDS011;6866;50.778;7.206;2023-07-20T00:41:14;9.77;;;2.90;;
13590;SDS011;6866;50.778;7.206;2023-07-20T00:43:39;9.60;;;3.25;;
13590;SDS011;6866;50.778;7.206;2023-07-20T00:46:05;7.40;;;2.80;;
13590;SDS011;6866;50.778;7.206;2023-07-20T00:48:31;7.95;;;3.20;;
13590;SDS011;6866;50.778;7.206;2023-07-20T00:50:57;11.95;;;3.30;;
13590;SDS011;6866;50.778;7.206;2023-07-20T00:53:24;7.80;;;2.72;;
13590;SDS011;6866;50.778;7.206;2023-07-20T00:55:50;7.57;;;3.10;;
13590;SDS011;6866;50.778;7.206;2023-07-20T00:58:16;12.80;;;3.25;;
13590;SDS011;6866;50.778;7.206;2023-07-20T01:03:17;7.13;;;3.00;;
13590;SDS011;6866;50.778;7.206;2023-07-20T01:05:48;7.30;;;2.80;;
13590;SDS011;6866;50.778;7.206;2023-07-20T01:11:01;6.85;;;2.80;;
13590;SDS011;6866;50.778;7.206;2023-07-20T01:13:34;7.45;;;3.13;;
13590;SDS011;6866;50.778;7.206;2023-07-20T01:16:00;7.55;;;2.70;;
13590;SDS011;6866;50.778;7.206;2023-07-20T01:18:26;11.98;;;3.22;;
13590;SDS011;6866;50.778;7.206;2023-07-20T01:20:53;8.43;;;2.58;;
13590;SDS011;6866;50.778;7.206;2023-07-20T01:23:42;5.03;;;2.75;;
13590;SDS011;6866;50.778;7.206;2023-07-20T01:31:56;8.40;;;2.88;;
13590;SDS011;6866;50.778;7.206;2023-07-20T01:34:22;6.18;;;2.60;;
13590;SDS011;6866;50.778;7.206;2023-07-20T01:36:49;6.15;;;2.80;;
13590;SDS011;6866;50.778;7.206;2023-07-20T01:39:17;8.60;;;2.70;;
13590;SDS011;6866;50.778;7.206;2023-07-20T01:41:44;7.32;;;2.83;;
13590;SDS011;6866;50.778;7.206;2023-07-20T01:44:10;5.32;;;2.58;;
13590;SDS011;6866;50.778;7.206;2023-07-20T01:46:37;6.03;;;2.72;;
13590;SDS011;6866;50.778;7.206;2023-07-20T01:49:03;6.68;;;2.70;;
13590;SDS011;6866;50.778;7.206;2023-07-20T01:51:28;6.65;;;2.50;;
13590;SDS011;6866;50.778;7.206;2023-07-20T01:53:54;7.47;;;2.65;;
13590;SDS011;6866;50.778;7.206;2023-07-20T01:56:20;4.78;;;2.70;;
13590;SDS011;6866;50.778;7.206;2023-07-20T01:58:45;7.20;;;3.03;;
13590;SDS011;6866;50.778;7.206;2023-07-20T02:01:11;5.10;;;2.58;;
13590;SDS011;6866;50.778;7.206;2023-07-20T02:03:36;5.07;;;2.30;;
13590;SDS011;6866;50.778;7.206;2023-07-20T02:06:02;6.65;;;2.70;;
13590;SDS011;6866;50.778;7.206;2023-07-20T02:08:27;5.63;;;2.70;;
13590;SDS011;6866;50.778;7.206;2023-07-20T02:10:53;7.63;;;2.95;;
13590;SDS011;6866;50.778;7.206;2023-07-20T02:13:18;6.03;;;2.60;;
13590;SDS011;6866;50.778;7.206;2023-07-20T02:15:44;6.78;;;2.78;;
13590;SDS011;6866;50.778;7.206;2023-07-20T02:18:12;5.00;;;2.55;;
13590;SDS011;6866;50.778;7.206;2023-07-20T02:20:37;6.05;;;2.58;;
13590;SDS011;6866;50.778;7.206;2023-07-20T02:23:03;7.32;;;2.88;;
13590;SDS011;6866;50.778;7.206;2023-07-20T02:25:28;5.38;;;2.40;;
13590;SDS011;6866;50.778;7.206;2023-07-20T02:27:55;5.03;;;2.67;;
13590;SDS011;6866;50.778;7.206;2023-07-20T02:30:21;8.93;;;2.97;;
13590;SDS011;6866;50.778;7.206;2023-07-20T02:32:47;5.70;;;3.05;;
13590;SDS011;6866;50.778;7.206;2023-07-20T02:35:13;7.45;;;2.50;;
13590;SDS011;6866;50.778;7.206;2023-07-20T02:37:41;7.72;;;3.00;;
13590;SDS011;6866;50.778;7.206;2023-07-20T02:40:07;8.43;;;3.00;;
13590;SDS011;6866;50.778;7.206;2023-07-20T02:42:33;7.30;;;3.08;;
13590;SDS011;6866;50.778;7.206;2023-07-20T02:44:59;9.88;;;3.10;;
13590;SDS011;6866;50.778;7.206;2023-07-20T02:47:25;7.43;;;2.90;;
13590;SDS011;6866;50.778;7.206;2023-07-20T02:49:50;6.07;;;2.92;;
13590;SDS011;6866;50.778;7.206;2023-07-20T02:52:16;4.95;;;2.72;;
13590;SDS011;6866;50.778;7.206;2023-07-20T02:54:41;5.25;;;2.67;;
13590;SDS011;6866;50.778;7.206;2023-07-20T02:57:07;6.47;;;2.97;;
13590;SDS011;6866;50.778;7.206;2023-07-20T02:59:32;8.80;;;3.22;;
13590;SDS011;6866;50.778;7.206;2023-07-20T03:01:58;7.90;;;3.30;;
13590;SDS011;6866;50.778;7.206;2023-07-20T03:04:25;8.38;;;3.30;;
13590;SDS011;6866;50.778;7.206;2023-07-20T03:06:52;7.68;;;2.90;;
13590;SDS011;6866;50.778;7.206;2023-07-20T03:09:17;9.02;;;3.13;;
13590;SDS011;6866;50.778;7.206;2023-07-20T03:11:43;8.88;;;2.90;;
13590;SDS011;6866;50.778;7.206;2023-07-20T03:14:08;5.95;;;2.88;;
13590;SDS011;6866;50.778;7.206;2023-07-20T03:16:35;7.60;;;3.22;;
13590;SDS011;6866;50.778;7.206;2023-07-20T03:19:01;8.55;;;3.03;;
13590;SDS011;6866;50.778;7.206;2023-07-20T03:21:27;8.00;;;3.10;;
13590;SDS011;6866;50.778;7.206;2023-07-20T03:23:52;10.23;;;3.15;;
13590;SDS011;6866;50.778;7.206;2023-07-20T03:26:19;9.63;;;3.40;;
13590;SDS011;6866;50.778;7.206;2023-07-20T03:28:44;6.22;;;3.10;;
13590;SDS011;6866;50.778;7.206;2023-07-20T03:31:10;6.82;;;3.13;;
13590;SDS011;6866;50.778;7.206;2023-07-20T03:33:35;9.07;;;3.30;;
13590;SDS011;6866;50.778;7.206;2023-07-20T03:36:01;8.75;;;3.17;;
13590;SDS011;6866;50.778;7.206;2023-07-20T03:38:27;6.60;;;3.17;;
13590;SDS011;6866;50.778;7.206;2023-07-20T03:40:53;6.63;;;2.90;;
13590;SDS011;6866;50.778;7.206;2023-07-20T03:43:20;5.70;;;2.90;;
13590;SDS011;6866;50.778;7.206;2023-07-20T03:45:46;7.50;;;3.17;;
13590;SDS011;6866;50.778;7.206;2023-07-20T03:48:13;6.05;;;2.95;;
13590;SDS011;6866;50.778;7.206;2023-07-20T03:50:40;6.72;;;2.72;;
13590;SDS011;6866;50.778;7.206;2023-07-20T03:53:06;12.10;;;2.92;;
13590;SDS011;6866;50.778;7.206;2023-07-20T03:55:32;7.03;;;2.92;;
13590;SDS011;6866;50.778;7.206;2023-07-20T03:57:57;8.57;;;3.00;;
13590;SDS011;6866;50.778;7.206;2023-07-20T04:00:23;7.68;;;3.00;;
13590;SDS011;6866;50.778;7.206;2023-07-20T04:02:49;7.13;;;3.08;;
13590;SDS011;6866;50.778;7.206;2023-07-20T04:05:14;7.53;;;3.17;;
13590;SDS011;6866;50.778;7.206;2023-07-20T04:07:40;6.75;;;3.00;;
13590;SDS011;6866;50.778;7.206;2023-07-20T04:10:06;6.25;;;2.65;;
13590;SDS011;6866;50.778;7.206;2023-07-20T04:12:32;11.57;;;3.03;;
13590;SDS011;6866;50.778;7.206;2023-07-20T04:14:57;7.88;;;2.67;;
13590;SDS011;6866;50.778;7.206;2023-07-20T04:17:23;10.70;;;2.83;;
13590;SDS011;6866;50.778;7.206;2023-07-20T04:19:54;7.25;;;2.83;;
13590;SDS011;6866;50.778;7.206;2023-07-20T04:22:19;7.70;;;2.70;;
13590;SDS011;6866;50.778;7.206;2023-07-20T04:24:45;8.63;;;2.92;;
13590;SDS011;6866;50.778;7.206;2023-07-20T04:27:11;7.22;;;2.80;;
13590;SDS011;6866;50.778;7.206;2023-07-20T04:29:36;7.65;;;3.03;;
13590;SDS011;6866;50.778;7.206;2023-07-20T04:32:02;8.82;;;2.90;;
13590;SDS011;6866;50.778;7.206;2023-07-20T04:34:28;8.48;;;2.75;;
13590;SDS011;6866;50.778;7.206;2023-07-20T04:36:53;9.00;;;2.85;;
13590;SDS011;6866;50.778;7.206;2023-07-20T04:39:19;8.85;;;2.63;;
13590;SDS011;6866;50.778;7.206;2023-07-20T04:41:44;10.10;;;3.13;;
13590;SDS011;6866;50.778;7.206;2023-07-20T04:44:10;10.68;;;3.05;;
13590;SDS011;6866;50.778;7.206;2023-07-20T04:46:35;9.23;;;3.15;;
13590;SDS011;6866;50.778;7.206;2023-07-20T04:49:01;7.90;;;2.47;;
13590;SDS011;6866;50.778;7.206;2023-07-20T04:51:27;7.30;;;3.13;;
13590;SDS011;6866;50.778;7.206;2023-07-20T04:53:55;6.40;;;2.70;;
13590;SDS011;6866;50.778;7.206;2023-07-20T04:56:21;9.77;;;3.20;;
13590;SDS011;6866;50.778;7.206;2023-07-20T04:58:48;7.05;;;2.90;;
13590;SDS011;6866;50.778;7.206;2023-07-20T05:01:13;7.70;;;2.63;;
13590;SDS011;6866;50.778;7.206;2023-07-20T05:03:39;5.45;;;2.83;;
13590;SDS011;6866;50.778;7.206;2023-07-20T05:06:04;8.70;;;3.05;;
13590;SDS011;6866;50.778;7.206;2023-07-20T05:08:30;7.35;;;2.90;;
13590;SDS011;6866;50.778;7.206;2023-07-20T05:10:55;8.25;;;3.25;;
13590;SDS011;6866;50.778;7.206;2023-07-20T05:13:21;9.48;;;2.85;;
13590;SDS011;6866;50.778;7.206;2023-07-20T05:15:46;8.43;;;2.80;;
13590;SDS011;6866;50.778;7.206;2023-07-20T05:18:15;8.32;;;3.20;;
13590;SDS011;6866;50.778;7.206;2023-07-20T05:20:45;9.32;;;2.95;;
13590;SDS011;6866;50.778;7.206;2023-07-20T05:23:14;9.38;;;3.42;;
13590;SDS011;6866;50.778;7.206;2023-07-20T05:25:39;10.00;;;3.58;;
13590;SDS011;6866;50.778;7.206;2023-07-20T05:28:05;11.80;;;3.50;;
13590;SDS011;6866;50.778;7.206;2023-07-20T05:30:31;7.95;;;3.35;;
13590;SDS011;6866;50.778;7.206;2023-07-20T05:32:57;11.45;;;3.17;;
13590;SDS011;6866;50.778;7.206;2023-07-20T05:35:22;9.77;;;4.30;;
13590;SDS011;6866;50.778;7.206;2023-07-20T05:37:48;6.60;;;3.38;;
13590;SDS011;6866;50.778;7.206;2023-07-20T05:40:14;14.90;;;4.03;;
13590;SDS011;6866;50.778;7.206;2023-07-20T05:42:43;8.15;;;3.17;;
13590;SDS011;6866;50.778;7.206;2023-07-20T05:45:14;11.23;;;3.22;;
13590;SDS011;6866;50.778;7.206;2023-07-20T05:47:41;8.48;;;3.38;;
13590;SDS011;6866;50.778;7.206;2023-07-20T05:50:07;8.32;;;3.75;;
13590;SDS011;6866;50.778;7.206;2023-07-20T05:52:32;14.18;;;4.43;;
13590;SDS011;6866;50.778;7.206;2023-07-20T05:54:58;8.95;;;3.67;;
13590;SDS011;6866;50.778;7.206;2023-07-20T05:57:23;8.85;;;3.60;;
13590;SDS011;6866;50.778;7.206;2023-07-20T05:59:49;15.50;;;4.30;;
13590;SDS011;6866;50.778;7.206;2023-07-20T06:02:15;11.40;;;3.80;;
13590;SDS011;6866;50.778;7.206;2023-07-20T06:04:41;10.73;;;4.40;;
13590;SDS011;6866;50.778;7.206;2023-07-20T06:07:07;10.85;;;4.07;;
13590;SDS011;6866;50.778;7.206;2023-07-20T06:09:32;8.70;;;3.95;;
13590;SDS011;6866;50.778;7.206;2023-07-20T06:11:58;9.55;;;4.07;;
13590;SDS011;6866;50.778;7.206;2023-07-20T06:14:24;9.50;;;3.72;;
13590;SDS011;6866;50.778;7.206;2023-07-20T06:16:49;9.32;;;3.92;;
13590;SDS011;6866;50.778;7.206;2023-07-20T06:19:15;9.55;;;3.85;;
13590;SDS011;6866;50.778;7.206;2023-07-20T06:21:41;10.65;;;4.00;;
13590;SDS011;6866;50.778;7.206;2023-07-20T06:24:07;9.70;;;3.92;;
13590;SDS011;6866;50.778;7.206;2023-07-20T06:26:32;13.20;;;4.10;;
13590;SDS011;6866;50.778;7.206;2023-07-20T06:29:03;8.63;;;3.90;;
13590;SDS011;6866;50.778;7.206;2023-07-20T06:31:32;8.55;;;3.88;;
13590;SDS011;6866;50.778;7.206;2023-07-20T06:33:59;10.02;;;3.72;;
13590;SDS011;6866;50.778;7.206;2023-07-20T06:36:24;10.23;;;4.43;;
13590;SDS011;6866;50.778;7.206;2023-07-20T06:38:51;10.55;;;4.22;;
13590;SDS011;6866;50.778;7.206;2023-07-20T06:41:17;8.93;;;3.80;;
13590;SDS011;6866;50.778;7.206;2023-07-20T06:43:43;10.57;;;4.13;;
13590;SDS011;6866;50.778;7.206;2023-07-20T06:46:08;9.50;;;4.32;;
13590;SDS011;6866;50.778;7.206;2023-07-20T06:48:34;9.35;;;4.05;;
13590;SDS011;6866;50.778;7.206;2023-07-20T06:50:59;8.40;;;3.90;;
13590;SDS011;6866;50.778;7.206;2023-07-20T06:53:25;7.63;;;3.70;;
13590;SDS011;6866;50.778;7.206;2023-07-20T06:55:50;9.48;;;3.55;;
13590;SDS011;6866;50.778;7.206;2023-07-20T06:58:16;11.30;;;3.90;;
13590;SDS011;6866;50.778;7.206;2023-07-20T07:00:42;14.93;;;4.60;;
13590;SDS011;6866;50.778;7.206;2023-07-20T07:03:08;10.00;;;3.90;;
13590;SDS011;6866;50.778;7.206;2023-07-20T07:05:37;8.30;;;3.55;;
13590;SDS011;6866;50.778;7.206;2023-07-20T07:08:03;9.98;;;3.78;;
13590;SDS011;6866;50.778;7.206;2023-07-20T07:10:33;9.60;;;4.47;;
13590;SDS011;6866;50.778;7.206;2023-07-20T07:13:00;12.20;;;5.50;;
13590;SDS011;6866;50.778;7.206;2023-07-20T07:15:25;12.88;;;4.88;;
13590;SDS011;6866;50.778;7.206;2023-07-20T07:17:51;10.35;;;4.65;;
13590;SDS011;6866;50.778;7.206;2023-07-20T07:20:17;12.95;;;4.32;;
13590;SDS011;6866;50.778;7.206;2023-07-20T07:22:42;8.95;;;4.22;;
13590;SDS011;6866;50.778;7.206;2023-07-20T07:25:09;10.93;;;4.53;;
13590;SDS011;6866;50.778;7.206;2023-07-20T07:27:35;12.43;;;4.40;;
13590;SDS011;6866;50.778;7.206;2023-07-20T07:30:00;9.48;;;4.82;;
13590;SDS011;6866;50.778;7.206;2023-07-20T07:32:26;12.18;;;4.72;;
13590;SDS011;6866;50.778;7.206;2023-07-20T07:34:52;11.45;;;5.43;;
13590;SDS011;6866;50.778;7.206;2023-07-20T07:37:17;11.27;;;4.65;;
13590;SDS011;6866;50.778;7.206;2023-07-20T07:39:44;11.38;;;4.40;;
13590;SDS011;6866;50.778;7.206;2023-07-20T07:42:11;12.68;;;4.07;;
13590;SDS011;6866;50.778;7.206;2023-07-20T07:44:37;10.40;;;4.25;;
13590;SDS011;6866;50.778;7.206;2023-07-20T07:47:03;9.93;;;4.15;;
13590;SDS011;6866;50.778;7.206;2023-07-20T07:49:28;10.32;;;4.45;;
13590;SDS011;6866;50.778;7.206;2023-07-20T07:51:54;12.23;;;4.80;;
13590;SDS011;6866;50.778;7.206;2023-07-20T07:54:19;8.55;;;4.78;;
13590;SDS011;6866;50.778;7.206;2023-07-20T07:56:45;8.13;;;4.38;;
13590;SDS011;6866;50.778;7.206;2023-07-20T07:59:10;10.52;;;5.38;;
13590;SDS011;6866;50.778;7.206;2023-07-20T08:13:45;11.55;;;4.15;;
13590;SDS011;6866;50.778;7.206;2023-07-20T08:35:39;7.78;;;5.82;;
13590;SDS011;6866;50.778;7.206;2023-07-20T08:50:16;6.95;;;3.35;;
13590;SDS011;6866;50.778;7.206;2023-07-20T08:52:42;7.13;;;3.97;;
13590;SDS011;6866;50.778;7.206;2023-07-20T08:55:07;9.55;;;3.85;;
13590;SDS011;6866;50.778;7.206;2023-07-20T08:57:33;6.68;;;3.22;;
13590;SDS011;6866;50.778;7.206;2023-07-20T09:00:01;6.03;;;2.92;;
13590;SDS011;6866;50.778;7.206;2023-07-20T09:02:31;5.72;;;3.22;;
13590;SDS011;6866;50.778;7.206;2023-07-20T09:05:04;4.75;;;2.53;;
13590;SDS011;6866;50.778;7.206;2023-07-20T09:07:30;6.47;;;3.28;;
13590;SDS011;6866;50.778;7.206;2023-07-20T09:09:57;4.50;;;3.13;;
13590;SDS011;6866;50.778;7.206;2023-07-20T09:12:22;6.38;;;3.10;;
13590;SDS011;6866;50.778;7.206;2023-07-20T09:14:48;13.23;;;3.67;;
13590;SDS011;6866;50.778;7.206;2023-07-20T09:17:14;9.02;;;3.38;;
13590;SDS011;6866;50.778;7.206;2023-07-20T09:19:47;6.47;;;3.00;;
13590;SDS011;6866;50.778;7.206;2023-07-20T09:22:13;5.82;;;2.88;;
13590;SDS011;6866;50.778;7.206;2023-07-20T09:24:39;6.18;;;3.17;;
13590;SDS011;6866;50.778;7.206;2023-07-20T09:27:06;7.25;;;2.97;;
13590;SDS011;6866;50.778;7.206;2023-07-20T09:31:58;6.80;;;2.67;;
13590;SDS011;6866;50.778;7.206;2023-07-20T09:34:25;6.25;;;2.50;;
13590;SDS011;6866;50.778;7.206;2023-07-20T09:36:51;4.47;;;2.20;;
13590;SDS011;6866;50.778;7.206;2023-07-20T09:39:17;8.23;;;2.28;;
13590;SDS011;6866;50.778;7.206;2023-07-20T09:41:43;8.40;;;3.03;;
13590;SDS011;6866;50.778;7.206;2023-07-20T09:44:09;5.75;;;2.55;;
13590;SDS011;6866;50.778;7.206;2023-07-20T09:46:48;5.15;;;2.13;;
13590;SDS011;6866;50.778;7.206;2023-07-20T09:49:14;6.22;;;2.30;;
13590;SDS011;6866;50.778;7.206;2023-07-20T09:54:07;4.97;;;2.58;;
13590;SDS011;6866;50.778;7.206;2023-07-20T09:56:33;7.25;;;2.67;;
13590;SDS011;6866;50.778;7.206;2023-07-20T09:58:59;6.00;;;2.38;;
13590;SDS011;6866;50.778;7.206;2023-07-20T10:01:25;5.05;;;2.40;;
13590;SDS011;6866;50.778;7.206;2023-07-20T10:03:54;5.13;;;2.33;;
13590;SDS011;6866;50.778;7.206;2023-07-20T10:06:23;4.40;;;2.30;;
13590;SDS011;6866;50.778;7.206;2023-07-20T10:08:52;7.28;;;2.30;;
13590;SDS011;6866;50.778;7.206;2023-07-20T10:11:18;4.72;;;2.25;;
13590;SDS011;6866;50.778;7.206;2023-07-20T10:13:46;4.85;;;2.15;;
13590;SDS011;6866;50.778;7.206;2023-07-20T10:16:20;6.10;;;2.20;;
13590;SDS011;6866;50.778;7.206;2023-07-20T10:19:05;6.22;;;2.30;;
13590;SDS011;6866;50.778;7.206;2023-07-20T10:21:42;6.87;;;2.47;;
13590;SDS011;6866;50.778;7.206;2023-07-20T10:24:13;5.10;;;1.95;;
13590;SDS011;6866;50.778;7.206;2023-07-20T10:26:40;8.45;;;2.40;;
13590;SDS011;6866;50.778;7.206;2023-07-20T10:29:05;5.93;;;2.60;;
13590;SDS011;6866;50.778;7.206;2023-07-20T10:31:32;5.90;;;2.22;;
13590;SDS011;6866;50.778;7.206;2023-07-20T10:33:58;5.35;;;2.00;;
13590;SDS011;6866;50.778;7.206;2023-07-20T10:36:25;5.63;;;1.90;;
13590;SDS011;6866;50.778;7.206;2023-07-20T10:38:55;6.32;;;2.30;;
13590;SDS011;6866;50.778;7.206;2023-07-20T10:41:35;6.53;;;2.10;;
13590;SDS011;6866;50.778;7.206;2023-07-20T10:44:04;5.22;;;2.13;;
13590;SDS011;6866;50.778;7.206;2023-07-20T10:49:03;7.20;;;2.22;;
13590;SDS011;6866;50.778;7.206;2023-07-20T10:51:38;4.45;;;2.10;;
13590;SDS011;6866;50.778;7.206;2023-07-20T10:54:07;4.90;;;2.10;;
13590;SDS011;6866;50.778;7.206;2023-07-20T10:56:55;4.40;;;1.83;;
13590;SDS011;6866;50.778;7.206;2023-07-20T11:01:49;5.22;;;2.00;;
13590;SDS011;6866;50.778;7.206;2023-07-20T11:07:37;4.93;;;1.67;;
13590;SDS011;6866;50.778;7.206;2023-07-20T11:10:13;3.67;;;1.70;;
13590;SDS011;6866;50.778;7.206;2023-07-20T11:12:40;7.03;;;1.85;;
13590;SDS011;6866;50.778;7.206;2023-07-20T11:15:05;4.47;;;1.63;;
13590;SDS011;6866;50.778;7.206;2023-07-20T11:17:32;4.75;;;1.70;;
13590;SDS011;6866;50.778;7.206;2023-07-20T11:19:59;6.20;;;1.90;;
13590;SDS011;6866;50.778;7.206;2023-07-20T11:22:26;3.65;;;1.90;;
13590;SDS011;6866;50.778;7.206;2023-07-20T11:24:54;3.65;;;1.75;;
13590;SDS011;6866;50.778;7.206;2023-07-20T11:27:20;5.78;;;1.90;;
13590;SDS011;6866;50.778;7.206;2023-07-20T11:29:47;3.25;;;1.63;;
13590;SDS011;6866;50.778;7.206;2023-07-20T11:32:20;5.00;;;2.00;;
13590;SDS011;6866;50.778;7.206;2023-07-20T11:34:47;7.90;;;2.50;;
13590;SDS011;6866;50.778;7.206;2023-07-20T11:37:13;5.60;;;1.90;;
13590;SDS011;6866;50.778;7.206;2023-07-20T11:39:39;5.55;;;2.30;;
13590;SDS011;6866;50.778;7.206;2023-07-20T11:42:05;6.80;;;2.10;;
13590;SDS011;6866;50.778;7.206;2023-07-20T11:44:31;5.13;;;1.90;;
13590;SDS011;6866;50.778;7.206;2023-07-20T11:47:01;4.78;;;1.73;;
13590;SDS011;6866;50.778;7.206;2023-07-20T11:49:34;4.00;;;1.63;;
13590;SDS011;6866;50.778;7.206;2023-07-20T11:52:08;4.80;;;1.67;;
13590;SDS011;6866;50.778;7.206;2023-07-20T11:57:02;6.97;;;1.90;;
13590;SDS011;6866;50.778;7.206;2023-07-20T11:59:28;5.32;;;1.75;;
13590;SDS011;6866;50.778;7.206;2023-07-20T12:01:54;3.05;;;1.63;;
13590;SDS011;6866;50.778;7.206;2023-07-20T12:04:22;4.60;;;1.67;;
13590;SDS011;6866;50.778;7.206;2023-07-20T12:06:49;3.53;;;1.70;;
13590;SDS011;6866;50.778;7.206;2023-07-20T12:09:15;3.03;;;1.77;;
13590;SDS011;6866;50.778;7.206;2023-07-20T12:11:42;3.85;;;1.83;;
13590;SDS011;6866;50.778;7.206;2023-07-20T12:14:10;4.18;;;1.60;;
13590;SDS011;6866;50.778;7.206;2023-07-20T12:16:36;4.78;;;1.70;;
13590;SDS011;6866;50.778;7.206;2023-07-20T12:19:06;3.80;;;1.30;;
13590;SDS011;6866;50.778;7.206;2023-07-20T12:21:36;4.00;;;1.60;;
13590;SDS011;6866;50.778;7.206;2023-07-20T12:24:04;3.58;;;1.77;;
13590;SDS011;6866;50.778;7.206;2023-07-20T12:26:31;6.70;;;1.85;;
13590;SDS011;6866;50.778;7.206;2023-07-20T12:28:58;3.40;;;1.52;;
13590;SDS011;6866;50.778;7.206;2023-07-20T12:31:24;3.08;;;1.40;;
13590;SDS011;6866;50.778;7.206;2023-07-20T12:33:50;4.25;;;1.50;;
13590;SDS011;6866;50.778;7.206;2023-07-20T12:36:17;5.90;;;1.58;;
13590;SDS011;6866;50.778;7.206;2023-07-20T12:38:43;4.20;;;1.70;;
13590;SDS011;6866;50.778;7.206;2023-07-20T12:41:09;2.90;;;1.50;;
13590;SDS011;6866;50.778;7.206;2023-07-20T12:43:39;4.30;;;1.65;;
13590;SDS011;6866;50.778;7.206;2023-07-20T12:46:09;3.90;;;1.40;;
13590;SDS011;6866;50.778;7.206;2023-07-20T12:48:36;5.35;;;1.50;;
13590;SDS011;6866;50.778;7.206;2023-07-20T12:51:03;4.88;;;1.70;;
13590;SDS011;6866;50.778;7.206;2023-07-20T12:53:29;2.72;;;1.63;;
13590;SDS011;6866;50.778;7.206;2023-07-20T12:55:55;4.10;;;1.70;;
13590;SDS011;6866;50.778;7.206;2023-07-20T12:58:21;3.00;;;1.50;;
13590;SDS011;6866;50.778;7.206;2023-07-20T13:00:46;2.80;;;1.50;;
13590;SDS011;6866;50.778;7.206;2023-07-20T13:03:12;3.55;;;1.60;;
13590;SDS011;6866;50.778;7.206;2023-07-20T13:05:38;4.10;;;1.58;;
13590;SDS011;6866;50.778;7.206;2023-07-20T13:08:04;5.80;;;1.75;;
13590;SDS011;6866;50.778;7.206;2023-07-20T13:10:30;4.05;;;1.58;;
13590;SDS011;6866;50.778;7.206;2023-07-20T13:12:56;5.80;;;1.88;;
13590;SDS011;6866;50.778;7.206;2023-07-20T13:15:24;4.93;;;1.77;;
13590;SDS011;6866;50.778;7.206;2023-07-20T13:17:54;3.00;;;1.63;;
13590;SDS011;6866;50.778;7.206;2023-07-20T13:20:20;4.65;;;1.70;;
13590;SDS011;6866;50.778;7.206;2023-07-20T13:22:45;6.75;;;1.70;;
13590;SDS011;6866;50.778;7.206;2023-07-20T13:25:12;3.75;;;1.42;;
13590;SDS011;6866;50.778;7.206;2023-07-20T13:27:37;4.45;;;1.60;;
13590;SDS011;6866;50.778;7.206;2023-07-20T13:30:03;3.28;;;1.40;;
13590;SDS011;6866;50.778;7.206;2023-07-20T13:32:32;3.85;;;1.38;;
13590;SDS011;6866;50.778;7.206;2023-07-20T13:34:58;4.57;;;1.30;;
13590;SDS011;6866;50.778;7.206;2023-07-20T13:37:24;2.90;;;1.27;;
13590;SDS011;6866;50.778;7.206;2023-07-20T13:39:50;3.80;;;1.20;;
13590;SDS011;6866;50.778;7.206;2023-07-20T13:42:16;6.47;;;1.33;;
13590;SDS011;6866;50.778;7.206;2023-07-20T13:44:42;3.20;;;1.30;;
13590;SDS011;6866;50.778;7.206;2023-07-20T13:47:07;3.53;;;1.20;;
13590;SDS011;6866;50.778;7.206;2023-07-20T13:49:33;6.15;;;1.23;;
13590;SDS011;6866;50.778;7.206;2023-07-20T13:51:59;3.00;;;1.10;;
13590;SDS011;6866;50.778;7.206;2023-07-20T13:54:25;4.13;;;1.20;;
13590;SDS011;6866;50.778;7.206;2023-07-20T13:56:51;3.70;;;1.15;;
13590;SDS011;6866;50.778;7.206;2023-07-20T13:59:17;5.82;;;1.30;;
13590;SDS011;6866;50.778;7.206;2023-07-20T14:01:43;5.45;;;1.40;;
13590;SDS011;6866;50.778;7.206;2023-07-20T14:04:09;2.58;;;1.10;;
13590;SDS011;6866;50.778;7.206;2023-07-20T14:06:34;5.82;;;1.38;;
13590;SDS011;6866;50.778;7.206;2023-07-20T14:09:00;3.40;;;1.20;;
13590;SDS011;6866;50.778;7.206;2023-07-20T14:11:27;3.78;;;1.20;;
13590;SDS011;6866;50.778;7.206;2023-07-20T14:13:52;3.38;;;1.38;;
13590;SDS011;6866;50.778;7.206;2023-07-20T14:16:19;2.30;;;1.10;;
13590;SDS011;6866;50.778;7.206;2023-07-20T14:18:45;3.03;;;1.33;;
13590;SDS011;6866;50.778;7.206;2023-07-20T14:21:14;2.90;;;1.10;;
13590;SDS011;6866;50.778;7.206;2023-07-20T14:23:40;6.93;;;1.42;;
13590;SDS011;6866;50.778;7.206;2023-07-20T14:26:06;4.55;;;1.30;;
13590;SDS011;6866;50.778;7.206;2023-07-20T14:28:32;4.03;;;1.48;;
13590;SDS011;6866;50.778;7.206;2023-07-20T14:30:58;4.00;;;1.60;;
13590;SDS011;6866;50.778;7.206;2023-07-20T14:33:23;5.78;;;1.60;;
13590;SDS011;6866;50.778;7.206;2023-07-20T14:35:49;4.13;;;1.20;;
13590;SDS011;6866;50.778;7.206;2023-07-20T14:38:15;5.90;;;1.33;;
13590;SDS011;6866;50.778;7.206;2023-07-20T14:40:40;3.97;;;1.20;;
13590;SDS011;6866;50.778;7.206;2023-07-20T14:43:06;4.47;;;1.20;;
13590;SDS011;6866;50.778;7.206;2023-07-20T14:45:32;3.67;;;1.30;;
13590;SDS011;6866;50.778;7.206;2023-07-20T14:47:57;3.45;;;1.20;;
13590;SDS011;6866;50.778;7.206;2023-07-20T14:50:23;2.17;;;0.90;;
13590;SDS011;6866;50.778;7.206;2023-07-20T14:52:48;3.30;;;1.17;;
13590;SDS011;6866;50.778;7.206;2023-07-20T14:55:14;2.95;;;1.13;;
13590;SDS011;6866;50.778;7.206;2023-07-20T14:57:40;4.25;;;1.27;;
13590;SDS011;6866;50.778;7.206;2023-07-20T15:00:06;6.43;;;1.60;;
13590;SDS011;6866;50.778;7.206;2023-07-20T15:02:35;3.15;;;1.20;;
13590;SDS011;6866;50.778;7.206;2023-07-20T15:05:06;4.95;;;1.35;;
13590;SDS011;6866;50.778;7.206;2023-07-20T15:07:32;4.82;;;1.30;;
13590;SDS011;6866;50.778;7.206;2023-07-20T15:09:58;4.28;;;1.40;;
13590;SDS011;6866;50.778;7.206;2023-07-20T15:12:23;5.63;;;1.27;;
13590;SDS011;6866;50.778;7.206;2023-07-20T15:17:34;3.10;;;1.23;;
13590;SDS011;6866;50.778;7.206;2023-07-20T15:20:01;5.15;;;1.17;;
13590;SDS011;6866;50.778;7.206;2023-07-20T15:22:29;3.50;;;1.10;;
13590;SDS011;6866;50.778;7.206;2023-07-20T15:24:57;5.07;;;1.27;;
13590;SDS011;6866;50.778;7.206;2023-07-20T15:27:22;3.53;;;1.38;;
13590;SDS011;6866;50.778;7.206;2023-07-20T15:29:48;4.32;;;1.23;;
13590;SDS011;6866;50.778;7.206;2023-07-20T15:32:14;2.30;;;1.00;;
13590;SDS011;6866;50.778;7.206;2023-07-20T15:34:42;4.63;;;1.30;;
13590;SDS011;6866;50.778;7.206;2023-07-20T15:37:07;6.70;;;1.38;;
13590;SDS011;6866;50.778;7.206;2023-07-20T15:39:34;4.32;;;1.27;;
13590;SDS011;6866;50.778;7.206;2023-07-20T15:42:00;3.65;;;1.10;;
13590;SDS011;6866;50.778;7.206;2023-07-20T15:44:26;3.03;;;1.27;;
13590;SDS011;6866;50.778;7.206;2023-07-20T15:46:51;3.60;;;1.25;;
13590;SDS011;6866;50.778;7.206;2023-07-20T15:49:17;4.60;;;1.50;;
13590;SDS011;6866;50.778;7.206;2023-07-20T15:51:42;5.68;;;1.10;;
13590;SDS011;6866;50.778;7.206;2023-07-20T15:54:11;4.53;;;1.20;;
13590;SDS011;6866;50.778;7.206;2023-07-20T15:56:38;5.35;;;1.00;;
13590;SDS011;6866;50.778;7.206;2023-07-20T15:59:05;3.05;;;1.10;;
13590;SDS011;6866;50.778;7.206;2023-07-20T16:01:33;6.57;;;1.15;;
13590;SDS011;6866;50.778;7.206;2023-07-20T16:03:59;3.92;;;1.20;;
13590;SDS011;6866;50.778;7.206;2023-07-20T16:06:25;2.15;;;1.08;;
13590;SDS011;6866;50.778;7.206;2023-07-20T16:08:51;3.67;;;1.17;;
13590;SDS011;6866;50.778;7.206;2023-07-20T16:11:17;2.65;;;1.10;;